createdAt,value
2022-10-19T00:01:06.421Z,2.90
2022-10-19T00:03:35.175Z,2.35
2022-10-19T00:06:12.028Z,4.63
2022-10-19T00:08:39.713Z,3.25
2022-10-19T00:11:07.305Z,4.05
2022-10-19T00:13:34.472Z,5.43
2022-10-19T00:16:01.665Z,4.88
2022-10-19T00:18:29.011Z,5.20
2022-10-19T00:21:04.339Z,2.67
2022-10-19T00:23:31.927Z,6.20
2022-10-19T00:25:59.666Z,3.58
2022-10-19T00:28:27.396Z,6.20
2022-10-19T00:30:54.684Z,5.90
2022-10-19T00:33:22.656Z,3.92
2022-10-19T00:35:51.703Z,5.20
2022-10-19T00:38:20.888Z,6.15
2022-10-19T00:40:49.029Z,7.53
2022-10-19T00:43:19.052Z,7.13
2022-10-19T00:45:46.278Z,5.15
2022-10-19T00:48:17.782Z,10.43
2022-10-19T00:50:46.648Z,7.82
2022-10-19T00:53:13.766Z,7.15
2022-10-19T00:55:41.585Z,3.58
2022-10-19T00:58:09.661Z,3.28
2022-10-19T01:00:36.889Z,5.28
2022-10-19T01:03:04.994Z,5.82
2022-10-19T01:05:35.110Z,3.80
2022-10-19T01:08:02.430Z,6.90
2022-10-19T01:11:01.613Z,5.60
2022-10-19T01:14:08.725Z,4.20
2022-10-19T01:17:00.685Z,3.80
2022-10-19T01:19:52.432Z,5.18
2022-10-19T01:23:00.200Z,4.07
2022-10-19T01:25:53.215Z,5.18
2022-10-19T01:28:29.661Z,7.03
2022-10-19T01:31:08.807Z,3.40
2022-10-19T01:33:47.494Z,4.47
2022-10-19T01:36:25.658Z,3.58
2022-10-19T01:39:08.904Z,4.18
2022-10-19T01:41:43.793Z,5.13
2022-10-19T01:44:53.633Z,4.53
2022-10-19T01:47:43.273Z,4.25
2022-10-19T01:50:24.950Z,5.68
2022-10-19T01:52:53.815Z,4.40
2022-10-19T01:55:23.063Z,3.85
2022-10-19T01:57:57.055Z,6.13
2022-10-19T02:00:26.084Z,4.50
2022-10-19T02:02:54.836Z,2.95
2022-10-19T02:05:28.171Z,3.22
2022-10-19T02:07:59.832Z,3.55
2022-10-19T02:10:28.959Z,4.82
2022-10-19T02:12:56.764Z,6.13
2022-10-19T02:15:48.343Z,6.55
2022-10-19T02:18:19.975Z,4.50
2022-10-19T02:20:47.257Z,3.35
2022-10-19T02:23:18.787Z,3.83
2022-10-19T02:25:45.887Z,4.20
2022-10-19T02:28:13.778Z,6.05
2022-10-19T02:30:42.560Z,4.78
2022-10-19T02:33:09.840Z,5.95
2022-10-19T02:35:37.018Z,8.20
2022-10-19T02:38:05.985Z,6.88
2022-10-19T02:40:38.357Z,7.50
2022-10-19T02:43:11.010Z,7.18
2022-10-19T02:45:44.781Z,8.15
2022-10-19T02:48:18.990Z,9.45
2022-10-19T02:50:49.792Z,6.75
2022-10-19T02:53:17.315Z,5.60
2022-10-19T02:55:59.421Z,4.28
2022-10-19T02:58:50.702Z,4.35
2022-10-19T03:01:18.765Z,4.30
2022-10-19T03:06:54.348Z,5.07
2022-10-19T03:09:49.144Z,5.47
2022-10-19T03:12:16.299Z,6.03
2022-10-19T03:14:43.952Z,6.30
2022-10-19T03:17:12.210Z,4.00
2022-10-19T03:19:40.202Z,5.07
2022-10-19T03:22:07.621Z,3.42
2022-10-19T03:24:34.758Z,3.78
2022-10-19T03:27:02.845Z,5.35
2022-10-19T03:29:30.448Z,7.72
2022-10-19T03:31:58.133Z,5.93
2022-10-19T03:34:25.202Z,7.70
2022-10-19T03:36:52.366Z,13.55
2022-10-19T03:39:19.776Z,10.18
2022-10-19T03:41:47.148Z,9.05
2022-10-19T03:44:14.469Z,7.88
2022-10-19T03:46:45.487Z,9.10
2022-10-19T03:49:16.073Z,14.15
2022-10-19T03:51:43.856Z,21.17
2022-10-19T03:54:16.459Z,14.85
2022-10-19T03:56:44.077Z,15.02
2022-10-19T03:59:15.170Z,17.60
2022-10-19T04:01:45.138Z,22.30
2022-10-19T04:04:18.266Z,18.07
2022-10-19T04:06:47.976Z,23.27
2022-10-19T04:09:18.214Z,19.17
2022-10-19T04:14:22.687Z,19.95
2022-10-19T04:16:59.726Z,18.77
2022-10-19T04:19:27.028Z,22.33
2022-10-19T04:21:54.364Z,22.35
2022-10-19T04:24:21.881Z,20.05
2022-10-19T04:26:55.531Z,19.85
2022-10-19T04:29:27.888Z,26.65
2022-10-19T04:31:57.493Z,25.40
2022-10-19T04:34:25.015Z,26.80
2022-10-19T04:36:53.423Z,28.65
2022-10-19T04:39:20.585Z,28.63
2022-10-19T04:41:48.245Z,22.75
2022-10-19T04:44:15.776Z,28.00
2022-10-19T04:46:43.312Z,31.02
2022-10-19T04:49:10.340Z,31.00
2022-10-19T04:51:37.285Z,28.25
2022-10-19T04:54:04.813Z,21.77
2022-10-19T04:56:33.381Z,17.73
2022-10-19T04:59:01.517Z,16.45
2022-10-19T05:01:30.647Z,18.95
2022-10-19T05:04:00.678Z,18.17
2022-10-19T05:06:28.875Z,18.80
2022-10-19T05:08:56.186Z,14.65
2022-10-19T05:11:49.071Z,101.65
2022-10-19T05:14:16.894Z,36.58
2022-10-19T05:16:44.103Z,40.90
2022-10-19T05:19:14.629Z,67.20
2022-10-19T05:21:41.756Z,45.53
2022-10-19T05:24:12.373Z,35.78
2022-10-19T05:26:39.965Z,20.88
2022-10-19T05:29:11.235Z,17.92
2022-10-19T05:31:41.519Z,20.52
2022-10-19T05:36:40.963Z,14.88
2022-10-19T05:39:18.705Z,8.95
2022-10-19T05:41:50.033Z,10.55
2022-10-19T05:44:20.138Z,14.10
2022-10-19T05:46:48.133Z,9.20
2022-10-19T05:49:17.471Z,11.30
2022-10-19T05:51:45.050Z,11.55
2022-10-19T05:54:12.938Z,9.63
2022-10-19T05:56:41.074Z,10.38
2022-10-19T05:59:15.036Z,7.53
2022-10-19T06:01:41.976Z,12.25
2022-10-19T06:04:18.395Z,16.08
2022-10-19T06:06:46.107Z,10.68
2022-10-19T06:09:13.372Z,15.95
2022-10-19T06:11:41.913Z,13.07
2022-10-19T06:14:13.197Z,18.92
2022-10-19T06:16:40.304Z,14.38
2022-10-19T06:19:07.394Z,17.40
2022-10-19T06:21:34.850Z,14.02
2022-10-19T06:24:04.970Z,15.82
2022-10-19T06:26:33.389Z,15.82
2022-10-19T06:29:01.239Z,12.00
2022-10-19T06:31:33.436Z,13.70
2022-10-19T06:34:00.737Z,16.20
2022-10-19T06:36:30.145Z,14.48
2022-10-19T06:38:57.636Z,14.57
2022-10-19T06:41:24.582Z,13.23
2022-10-19T06:43:54.237Z,13.85
2022-10-19T06:46:23.698Z,12.00
2022-10-19T06:48:58.573Z,15.27
2022-10-19T06:51:27.517Z,13.25
2022-10-19T06:53:57.105Z,12.23
2022-10-19T06:56:26.086Z,13.13
2022-10-19T06:58:54.704Z,11.48
2022-10-19T07:01:22.725Z,12.23
2022-10-19T07:03:52.025Z,10.75
2022-10-19T07:06:20.114Z,13.43
2022-10-19T07:08:47.560Z,9.25
2022-10-19T07:11:19.748Z,10.20
2022-10-19T07:13:47.063Z,12.50
2022-10-19T07:16:21.269Z,10.63
2022-10-19T07:18:51.613Z,10.90
2022-10-19T07:21:19.964Z,12.32
2022-10-19T07:23:47.757Z,10.43
2022-10-19T07:26:23.445Z,11.35
2022-10-19T07:28:51.544Z,12.35
2022-10-19T07:31:22.350Z,12.93
2022-10-19T07:33:57.190Z,13.35
2022-10-19T07:36:24.888Z,14.18
2022-10-19T07:38:52.737Z,12.35
2022-10-19T07:41:22.046Z,13.63
2022-10-19T07:43:49.966Z,11.18
2022-10-19T07:46:25.609Z,11.73
2022-10-19T07:48:53.896Z,10.40
2022-10-19T07:51:22.753Z,9.57
2022-10-19T07:53:49.957Z,11.73
2022-10-19T07:56:22.866Z,9.70
2022-10-19T07:58:51.729Z,10.55
2022-10-19T08:01:24.383Z,8.90
2022-10-19T08:06:42.793Z,17.25
2022-10-19T08:09:15.573Z,9.55
2022-10-19T08:11:49.981Z,9.43
2022-10-19T08:14:16.932Z,8.52
2022-10-19T08:16:44.800Z,12.98
2022-10-19T08:19:14.050Z,10.55
2022-10-19T08:21:43.896Z,15.38
2022-10-19T08:24:12.790Z,9.93
2022-10-19T08:26:41.015Z,13.43
2022-10-19T08:29:12.498Z,12.80
2022-10-19T08:31:40.080Z,9.52
2022-10-19T08:34:07.144Z,11.02
2022-10-19T08:36:35.839Z,9.48
2022-10-19T08:39:05.985Z,15.15
2022-10-19T08:41:51.517Z,11.57
2022-10-19T08:44:40.368Z,12.43
2022-10-19T08:47:12.340Z,13.93
2022-10-19T08:49:41.799Z,12.15
2022-10-19T08:52:34.584Z,10.02
2022-10-19T08:55:15.245Z,12.15
2022-10-19T08:58:10.655Z,13.75
2022-10-19T09:01:17.214Z,14.13
2022-10-19T09:03:55.439Z,16.13
2022-10-19T09:06:29.512Z,14.80
2022-10-19T09:08:58.388Z,14.02
2022-10-19T09:11:30.253Z,17.40
2022-10-19T09:14:28.662Z,16.33
2022-10-19T09:17:02.653Z,14.73
2022-10-19T09:19:32.158Z,20.20
2022-10-19T09:22:07.787Z,18.33
2022-10-19T09:24:51.936Z,16.42
2022-10-19T09:27:30.711Z,16.05
2022-10-19T09:30:01.523Z,16.15
2022-10-19T09:32:37.478Z,16.85
2022-10-19T09:35:28.446Z,14.90
2022-10-19T09:37:56.585Z,16.77
2022-10-19T09:40:27.127Z,15.52
2022-10-19T09:42:58.703Z,15.15
2022-10-19T09:45:32.626Z,13.82
2022-10-19T09:48:08.607Z,17.17
2022-10-19T09:50:44.690Z,12.75
2022-10-19T09:53:20.969Z,12.30
2022-10-19T09:55:57.417Z,14.07
2022-10-19T09:58:30.467Z,12.63
2022-10-19T10:01:01.418Z,15.30
2022-10-19T10:03:32.208Z,14.82
2022-10-19T10:06:04.123Z,14.20
2022-10-19T10:08:58.050Z,15.13
2022-10-19T10:11:28.999Z,12.88
2022-10-19T10:13:58.417Z,14.18
2022-10-19T10:16:30.612Z,18.23
2022-10-19T10:19:03.249Z,15.18
2022-10-19T10:21:34.853Z,14.52
2022-10-19T10:24:06.008Z,12.80
2022-10-19T10:26:40.457Z,14.45
2022-10-19T10:29:24.995Z,14.23
2022-10-19T10:32:14.488Z,12.75
2022-10-19T10:35:00.011Z,12.47
2022-10-19T10:37:31.507Z,14.68
2022-10-19T10:42:44.015Z,13.57
2022-10-19T10:45:26.660Z,12.07
2022-10-19T10:47:54.413Z,9.75
2022-10-19T10:50:28.206Z,11.90
2022-10-19T10:53:04.783Z,10.07
2022-10-19T10:55:32.678Z,11.02
2022-10-19T10:58:26.780Z,13.43
2022-10-19T11:00:57.273Z,9.70
2022-10-19T11:03:29.199Z,10.63
2022-10-19T11:06:01.188Z,11.95
2022-10-19T11:08:47.644Z,15.38
2022-10-19T11:11:20.719Z,14.88
2022-10-19T11:13:57.021Z,14.77
2022-10-19T11:16:29.168Z,10.73
2022-10-19T11:19:23.463Z,10.63
2022-10-19T11:21:56.508Z,13.13
2022-10-19T11:24:27.096Z,12.32
2022-10-19T11:27:24.425Z,12.93
2022-10-19T11:30:23.760Z,13.82
2022-10-19T11:32:56.707Z,24.08
2022-10-19T11:35:36.050Z,31.10
2022-10-19T11:38:29.628Z,21.08
2022-10-19T11:41:19.367Z,23.70
2022-10-19T11:43:53.882Z,21.30
2022-10-19T11:46:38.943Z,21.20
2022-10-19T11:49:34.261Z,23.25
2022-10-19T11:52:20.994Z,21.67
2022-10-19T11:54:53.953Z,17.52
2022-10-19T11:57:30.968Z,19.05
2022-10-19T12:00:27.218Z,18.02
2022-10-19T12:03:21.504Z,14.98
2022-10-19T12:06:01.126Z,16.67
2022-10-19T12:09:02.508Z,16.92
2022-10-19T12:11:57.124Z,16.77
2022-10-19T12:14:30.393Z,17.75
2022-10-19T12:17:02.672Z,15.77
2022-10-19T12:19:36.743Z,17.25
2022-10-19T12:22:06.567Z,18.50
2022-10-19T12:24:34.622Z,16.35
2022-10-19T12:27:02.329Z,14.30
2022-10-19T12:29:34.314Z,17.75
2022-10-19T12:32:03.146Z,20.65
2022-10-19T12:34:33.411Z,28.08
2022-10-19T12:37:24.375Z,26.20
2022-10-19T12:40:00.845Z,27.30
2022-10-19T12:42:52.074Z,30.25
2022-10-19T12:45:24.045Z,19.60
2022-10-19T12:48:12.457Z,18.40
2022-10-19T12:50:48.738Z,19.45
2022-10-19T12:53:38.129Z,15.85
2022-10-19T12:56:07.343Z,20.55
2022-10-19T12:58:50.321Z,19.98
2022-10-19T13:01:42.815Z,20.02
2022-10-19T13:04:31.496Z,27.38
2022-10-19T13:06:59.313Z,22.77
2022-10-19T13:09:44.142Z,21.98
2022-10-19T13:12:17.764Z,23.77
2022-10-19T13:14:58.679Z,24.92
2022-10-19T13:17:36.653Z,27.10
2022-10-19T13:20:15.910Z,24.63
2022-10-19T13:23:13.984Z,28.33
2022-10-19T13:25:42.246Z,22.15
2022-10-19T13:28:09.405Z,20.15
2022-10-19T13:30:39.171Z,22.38
2022-10-19T13:33:24.961Z,23.25
2022-10-19T13:36:04.644Z,20.95
2022-10-19T13:38:50.686Z,21.40
2022-10-19T13:41:21.866Z,27.55
2022-10-19T13:44:12.303Z,19.35
2022-10-19T13:49:15.461Z,24.35
2022-10-19T13:52:11.041Z,22.63
2022-10-19T13:55:05.591Z,24.52
2022-10-19T13:57:50.156Z,23.13
2022-10-19T14:00:24.225Z,23.55
2022-10-19T14:03:11.568Z,26.10
2022-10-19T14:05:48.340Z,22.55
2022-10-19T14:08:53.000Z,24.65
2022-10-19T14:11:34.058Z,22.70
2022-10-19T14:14:21.267Z,22.92
2022-10-19T14:17:04.145Z,24.40
2022-10-19T14:19:43.770Z,23.92
2022-10-19T14:22:37.077Z,26.17
2022-10-19T14:25:18.144Z,25.48
2022-10-19T14:28:01.172Z,24.85
2022-10-19T14:30:32.407Z,28.80
2022-10-19T14:33:02.401Z,26.25
2022-10-19T14:38:00.283Z,29.27
2022-10-19T14:40:32.804Z,24.88
2022-10-19T14:43:01.512Z,26.25
2022-10-19T14:45:31.286Z,23.65
2022-10-19T14:47:59.927Z,24.40
2022-10-19T14:50:47.730Z,24.98
2022-10-19T14:53:42.250Z,25.02
2022-10-19T14:56:20.300Z,23.48
2022-10-19T14:58:53.517Z,24.80
2022-10-19T15:01:21.390Z,28.60
2022-10-19T15:03:50.039Z,27.63
2022-10-19T15:06:24.155Z,25.10
2022-10-19T15:08:58.117Z,25.85
2022-10-19T15:11:46.975Z,24.27
2022-10-19T15:14:26.667Z,23.35
2022-10-19T15:17:00.690Z,21.17
2022-10-19T15:19:30.394Z,19.27
2022-10-19T15:22:09.539Z,22.70
2022-10-19T15:24:36.997Z,20.42
2022-10-19T15:27:19.008Z,20.52
2022-10-19T15:29:56.645Z,20.38
2022-10-19T15:32:28.389Z,17.80
2022-10-19T15:34:55.713Z,19.15
2022-10-19T15:37:24.049Z,22.25
2022-10-19T15:39:52.839Z,23.02
2022-10-19T15:42:44.764Z,22.30
2022-10-19T15:45:30.276Z,22.85
2022-10-19T15:48:23.936Z,14.57
2022-10-19T15:50:54.848Z,18.55
2022-10-19T15:53:22.588Z,14.40
2022-10-19T15:55:50.001Z,16.10
2022-10-19T15:58:18.067Z,17.38
2022-10-19T16:00:45.023Z,15.25
2022-10-19T16:03:12.405Z,16.38
2022-10-19T16:05:39.604Z,20.85
2022-10-19T16:08:10.100Z,18.02
2022-10-19T16:10:39.518Z,19.02
2022-10-19T16:13:06.525Z,16.45
2022-10-19T16:15:34.371Z,18.20
2022-10-19T16:18:01.999Z,16.20
2022-10-19T16:20:30.309Z,17.00
2022-10-19T16:22:58.473Z,18.73
2022-10-19T16:25:26.071Z,20.08
2022-10-19T16:27:53.172Z,17.70
2022-10-19T16:30:20.454Z,19.88
2022-10-19T16:32:49.157Z,22.05
2022-10-19T16:35:16.264Z,19.85
2022-10-19T16:37:43.343Z,21.58
2022-10-19T16:40:10.680Z,20.73
2022-10-19T16:42:39.214Z,20.75
2022-10-19T16:45:06.723Z,19.48
2022-10-19T16:47:33.797Z,22.35
2022-10-19T16:50:02.682Z,23.13
2022-10-19T16:52:34.451Z,21.13
2022-10-19T16:55:01.984Z,23.52
2022-10-19T16:57:30.604Z,20.25
2022-10-19T16:59:57.736Z,21.10
2022-10-19T17:02:25.101Z,18.40
2022-10-19T17:04:52.383Z,18.15
2022-10-19T17:07:19.676Z,17.52
2022-10-19T17:09:55.069Z,14.93
2022-10-19T17:12:22.425Z,19.98
2022-10-19T17:14:51.445Z,15.18
2022-10-19T17:17:18.716Z,14.63
2022-10-19T17:19:45.852Z,16.00
2022-10-19T17:22:12.837Z,17.27
2022-10-19T17:24:40.105Z,15.23
2022-10-19T17:27:07.213Z,20.15
2022-10-19T17:29:34.857Z,14.95
2022-10-19T17:32:02.005Z,18.17
2022-10-19T17:34:29.342Z,14.88
2022-10-19T17:36:56.912Z,14.65
2022-10-19T17:39:28.956Z,15.50
2022-10-19T17:42:02.311Z,13.05
2022-10-19T17:44:31.463Z,14.00
2022-10-19T17:47:00.394Z,11.95
2022-10-19T17:49:28.775Z,12.68
2022-10-19T17:51:59.806Z,14.43
2022-10-19T17:54:27.170Z,12.20
2022-10-19T17:56:54.263Z,11.23
2022-10-19T17:59:30.188Z,12.38
2022-10-19T18:02:03.548Z,13.05
2022-10-19T18:04:32.516Z,11.73
2022-10-19T18:06:59.502Z,13.80
2022-10-19T18:09:26.659Z,12.80
2022-10-19T18:11:54.643Z,13.93
2022-10-19T18:14:21.750Z,11.32
2022-10-19T18:16:52.206Z,11.57
2022-10-19T18:21:47.689Z,13.40
2022-10-19T18:24:21.956Z,14.52
2022-10-19T18:26:50.873Z,13.25
2022-10-19T18:29:21.022Z,12.52
2022-10-19T18:31:53.438Z,15.50
2022-10-19T18:34:27.824Z,12.63
2022-10-19T18:36:55.065Z,13.07
2022-10-19T18:39:22.972Z,13.65
2022-10-19T18:41:53.886Z,20.38
2022-10-19T18:44:25.519Z,17.77
2022-10-19T18:46:58.353Z,12.98
2022-10-19T18:49:26.700Z,14.80
2022-10-19T18:51:55.988Z,15.32
2022-10-19T18:54:24.663Z,16.23
2022-10-19T18:56:52.028Z,15.40
2022-10-19T18:59:19.337Z,19.15
2022-10-19T19:01:46.505Z,25.80
2022-10-19T19:04:14.506Z,23.52
2022-10-19T19:06:42.303Z,20.10
2022-10-19T19:09:11.267Z,16.50
2022-10-19T19:11:42.078Z,16.15
2022-10-19T19:14:16.040Z,15.38
2022-10-19T19:16:45.021Z,15.73
2022-10-19T19:19:15.440Z,17.40
2022-10-19T19:22:08.576Z,13.18
2022-10-19T19:24:38.606Z,12.88
2022-10-19T19:27:09.818Z,11.65
2022-10-19T19:29:38.355Z,15.50
2022-10-19T19:32:05.792Z,17.23
2022-10-19T19:34:35.773Z,11.95
2022-10-19T19:37:04.219Z,11.85
2022-10-19T19:39:34.535Z,11.10
2022-10-19T19:42:01.660Z,12.35
2022-10-19T19:44:29.939Z,15.10
2022-10-19T19:47:17.943Z,10.75
2022-10-19T19:49:47.865Z,14.88
2022-10-19T19:52:15.683Z,13.45
2022-10-19T19:54:43.187Z,14.68
2022-10-19T19:57:10.177Z,11.70
2022-10-19T19:59:37.410Z,13.75
2022-10-19T20:02:06.381Z,11.00
2022-10-19T20:04:33.431Z,10.27
2022-10-19T20:07:00.440Z,15.52
2022-10-19T20:09:27.588Z,10.30
2022-10-19T20:11:54.530Z,11.32
2022-10-19T20:14:21.452Z,10.80
2022-10-19T20:16:48.400Z,10.95
2022-10-19T20:19:15.475Z,12.00
2022-10-19T20:21:42.902Z,11.88
2022-10-19T20:24:10.837Z,10.02
2022-10-19T20:26:38.351Z,12.70
2022-10-19T20:29:05.415Z,11.05
2022-10-19T20:31:39.107Z,10.40
2022-10-19T20:34:12.897Z,16.38
2022-10-19T20:36:40.365Z,14.25
2022-10-19T20:39:07.811Z,12.90
2022-10-19T20:41:35.307Z,9.68
2022-10-19T20:44:02.414Z,11.25
2022-10-19T20:46:30.599Z,10.02
2022-10-19T20:48:59.922Z,12.68
2022-10-19T20:51:32.508Z,10.52
2022-10-19T20:54:08.437Z,12.07
2022-10-19T20:56:39.038Z,12.10
2022-10-19T20:59:12.396Z,11.30
2022-10-19T21:01:43.473Z,11.15
2022-10-19T21:04:14.789Z,10.38
2022-10-19T21:06:53.201Z,10.00
2022-10-19T21:09:26.176Z,11.18
2022-10-19T21:12:12.643Z,11.00
2022-10-19T21:17:43.205Z,14.35
2022-10-19T21:20:12.818Z,8.57
2022-10-19T21:22:58.866Z,9.80
2022-10-19T21:31:27.142Z,9.80
2022-10-19T21:33:54.688Z,10.95
2022-10-19T21:36:40.716Z,9.27
2022-10-19T21:39:07.892Z,11.35
2022-10-19T21:44:38.097Z,13.00
2022-10-19T21:49:51.139Z,10.98
2022-10-19T21:52:55.809Z,11.88
2022-10-19T21:59:09.094Z,11.23
2022-10-19T22:06:07.656Z,10.40
2022-10-19T22:18:07.782Z,9.52
2022-10-19T22:29:51.739Z,12.65
2022-10-19T22:46:20.989Z,12.23
2022-10-19T22:49:07.100Z,11.15
2022-10-19T22:51:34.301Z,12.98
2022-10-19T22:54:01.522Z,12.40
2022-10-19T23:01:57.662Z,10.48
2022-10-19T23:05:02.253Z,10.15
2022-10-19T23:07:29.920Z,11.30
2022-10-19T23:12:41.586Z,11.90
2022-10-19T23:15:09.967Z,9.82
2022-10-19T23:17:37.926Z,12.00
2022-10-19T23:29:35.073Z,11.27
2022-10-19T23:32:21.317Z,10.13
2022-10-19T23:38:10.679Z,9.00
2022-10-19T23:40:37.590Z,9.95
2022-10-19T23:43:04.631Z,10.07
2022-10-19T23:51:21.135Z,10.27
2022-10-19T23:56:50.857Z,9.95
2022-10-19T23:59:37.266Z,10.95
